sensor_id;sensor_type;location;lat;lon;timestamp;temperature;humidity
44271;DHT22;29963;44.594;11.368;2023-01-28T00:00:10;5.00;99.90
44271;DHT22;29963;44.594;11.368;2023-01-28T00:02:35;5.00;99.90
44271;DHT22;29963;44.594;11.368;2023-01-28T00:05:01;4.90;99.90
44271;DHT22;29963;44.594;11.368;2023-01-28T00:07:27;4.90;99.90
44271;DHT22;29963;44.594;11.368;2023-01-28T00:09:53;5.00;99.90
44271;DHT22;29963;44.594;11.368;2023-01-28T00:12:18;5.00;99.90
44271;DHT22;29963;44.594;11.368;2023-01-28T00:14:44;5.00;99.90
44271;DHT22;29963;44.594;11.368;2023-01-28T00:17:12;5.00;99.90
44271;DHT22;29963;44.594;11.368;2023-01-28T00:19:38;5.10;99.90
44271;DHT22;29963;44.594;11.368;2023-01-28T00:22:04;5.10;99.90
44271;DHT22;29963;44.594;11.368;2023-01-28T00:24:30;5.10;99.90
44271;DHT22;29963;44.594;11.368;2023-01-28T00:26:56;5.10;99.90
44271;DHT22;29963;44.594;11.368;2023-01-28T00:29:21;5.10;99.90
44271;DHT22;29963;44.594;11.368;2023-01-28T00:31:47;5.10;99.90
44271;DHT22;29963;44.594;11.368;2023-01-28T00:34:12;5.10;99.90
44271;DHT22;29963;44.594;11.368;2023-01-28T00:36:38;5.10;99.90
44271;DHT22;29963;44.594;11.368;2023-01-28T00:39:05;5.10;99.90
44271;DHT22;29963;44.594;11.368;2023-01-28T00:41:30;5.10;99.90
44271;DHT22;29963;44.594;11.368;2023-01-28T00:43:59;5.10;99.90
44271;DHT22;29963;44.594;11.368;2023-01-28T00:46:24;5.10;99.90
44271;DHT22;29963;44.594;11.368;2023-01-28T00:48:51;5.10;99.90
44271;DHT22;29963;44.594;11.368;2023-01-28T00:51:19;5.20;99.90
44271;DHT22;29963;44.594;11.368;2023-01-28T00:53:46;5.20;99.90
44271;DHT22;29963;44.594;11.368;2023-01-28T00:56:13;5.20;99.90
44271;DHT22;29963;44.594;11.368;2023-01-28T00:58:39;5.20;99.90
44271;DHT22;29963;44.594;11.368;2023-01-28T01:01:14;5.20;99.90
44271;DHT22;29963;44.594;11.368;2023-01-28T01:03:40;5.30;99.90
44271;DHT22;29963;44.594;11.368;2023-01-28T01:06:06;5.30;99.90
44271;DHT22;29963;44.594;11.368;2023-01-28T01:08:32;5.30;99.90
44271;DHT22;29963;44.594;11.368;2023-01-28T01:11:05;5.30;99.90
44271;DHT22;29963;44.594;11.368;2023-01-28T01:13:32;5.30;99.90
44271;DHT22;29963;44.594;11.368;2023-01-28T01:16:14;5.30;99.90
44271;DHT22;29963;44.594;11.368;2023-01-28T01:18:43;5.30;99.90
44271;DHT22;29963;44.594;11.368;2023-01-28T01:21:10;5.30;99.90
44271;DHT22;29963;44.594;11.368;2023-01-28T01:23:36;5.20;99.90
44271;DHT22;29963;44.594;11.368;2023-01-28T01:26:06;5.30;99.90
44271;DHT22;29963;44.594;11.368;2023-01-28T01:28:32;5.30;99.90
44271;DHT22;29963;44.594;11.368;2023-01-28T01:31:02;5.30;99.90
44271;DHT22;29963;44.594;11.368;2023-01-28T01:33:29;5.30;99.90
44271;DHT22;29963;44.594;11.368;2023-01-28T01:35:56;5.30;99.90
44271;DHT22;29963;44.594;11.368;2023-01-28T01:38:22;5.30;99.90
44271;DHT22;29963;44.594;11.368;2023-01-28T01:40:48;5.40;99.90
44271;DHT22;29963;44.594;11.368;2023-01-28T01:43:16;5.30;99.90
44271;DHT22;29963;44.594;11.368;2023-01-28T01:45:42;5.40;99.90
44271;DHT22;29963;44.594;11.368;2023-01-28T01:48:26;5.40;99.90
44271;DHT22;29963;44.594;11.368;2023-01-28T01:50:59;5.40;99.90
44271;DHT22;29963;44.594;11.368;2023-01-28T01:53:27;5.40;99.90
44271;DHT22;29963;44.594;11.368;2023-01-28T01:55:58;5.40;99.90
44271;DHT22;29963;44.594;11.368;2023-01-28T01:58:30;5.40;99.90
44271;DHT22;29963;44.594;11.368;2023-01-28T02:00:58;5.40;99.90
44271;DHT22;29963;44.594;11.368;2023-01-28T02:06:08;5.50;99.90
44271;DHT22;29963;44.594;11.368;2023-01-28T02:08:34;5.40;99.90
44271;DHT22;29963;44.594;11.368;2023-01-28T02:11:05;5.40;99.90
44271;DHT22;29963;44.594;11.368;2023-01-28T02:13:46;5.50;99.90
44271;DHT22;29963;44.594;11.368;2023-01-28T02:16:13;5.50;99.90
44271;DHT22;29963;44.594;11.368;2023-01-28T02:18:41;5.50;99.90
44271;DHT22;29963;44.594;11.368;2023-01-28T02:26:56;5.50;99.90
44271;DHT22;29963;44.594;11.368;2023-01-28T02:29:43;5.40;99.90
44271;DHT22;29963;44.594;11.368;2023-01-28T02:35:13;5.40;99.90
44271;DHT22;29963;44.594;11.368;2023-01-28T02:37:49;5.40;99.90
44271;DHT22;29963;44.594;11.368;2023-01-28T02:40:23;5.40;99.90
44271;DHT22;29963;44.594;11.368;2023-01-28T02:42:50;5.40;99.90
44271;DHT22;29963;44.594;11.368;2023-01-28T02:45:32;5.30;99.90
44271;DHT22;29963;44.594;11.368;2023-01-28T02:48:21;5.30;99.90
44271;DHT22;29963;44.594;11.368;2023-01-28T02:50:57;5.20;99.90
44271;DHT22;29963;44.594;11.368;2023-01-28T02:53:40;5.20;99.90
44271;DHT22;29963;44.594;11.368;2023-01-28T02:56:24;5.20;99.90
44271;DHT22;29963;44.594;11.368;2023-01-28T03:01:54;5.00;99.90
44271;DHT22;29963;44.594;11.368;2023-01-28T03:04:40;5.10;99.90
44271;DHT22;29963;44.594;11.368;2023-01-28T03:07:09;5.00;99.90
44271;DHT22;29963;44.594;11.368;2023-01-28T03:09:38;5.00;99.90
44271;DHT22;29963;44.594;11.368;2023-01-28T03:15:16;5.00;99.90
44271;DHT22;29963;44.594;11.368;2023-01-28T03:18:15;5.00;99.90
44271;DHT22;29963;44.594;11.368;2023-01-28T03:21:28;5.00;99.90
44271;DHT22;29963;44.594;11.368;2023-01-28T03:24:20;5.00;99.90
44271;DHT22;29963;44.594;11.368;2023-01-28T03:27:14;5.00;99.90
44271;DHT22;29963;44.594;11.368;2023-01-28T03:30:04;5.00;99.90
44271;DHT22;29963;44.594;11.368;2023-01-28T03:32:50;5.00;99.90
44271;DHT22;29963;44.594;11.368;2023-01-28T03:35:35;5.00;99.90
44271;DHT22;29963;44.594;11.368;2023-01-28T03:38:20;5.00;99.90
44271;DHT22;29963;44.594;11.368;2023-01-28T03:40:59;5.00;99.90
44271;DHT22;29963;44.594;11.368;2023-01-28T03:43:25;5.10;99.90
44271;DHT22;29963;44.594;11.368;2023-01-28T03:45:51;5.10;99.90
44271;DHT22;29963;44.594;11.368;2023-01-28T03:48:21;5.00;99.90
44271;DHT22;29963;44.594;11.368;2023-01-28T03:50:47;5.00;99.90
44271;DHT22;29963;44.594;11.368;2023-01-28T03:53:17;5.00;99.90
44271;DHT22;29963;44.594;11.368;2023-01-28T03:55:44;5.00;99.90
44271;DHT22;29963;44.594;11.368;2023-01-28T03:58:11;4.90;99.90
44271;DHT22;29963;44.594;11.368;2023-01-28T04:00:37;4.90;99.90
44271;DHT22;29963;44.594;11.368;2023-01-28T04:03:07;4.60;99.90
44271;DHT22;29963;44.594;11.368;2023-01-28T04:06:02;4.90;99.90
44271;DHT22;29963;44.594;11.368;2023-01-28T04:08:26;4.80;99.90
44271;DHT22;29963;44.594;11.368;2023-01-28T04:10:52;4.70;99.90
44271;DHT22;29963;44.594;11.368;2023-01-28T04:13:18;4.70;99.90
44271;DHT22;29963;44.594;11.368;2023-01-28T04:15:45;4.70;99.90
44271;DHT22;29963;44.594;11.368;2023-01-28T04:18:11;4.60;99.90
44271;DHT22;29963;44.594;11.368;2023-01-28T04:20:40;4.60;99.90
44271;DHT22;29963;44.594;11.368;2023-01-28T04:23:06;4.70;99.90
44271;DHT22;29963;44.594;11.368;2023-01-28T04:25:32;4.70;99.90
44271;DHT22;29963;44.594;11.368;2023-01-28T04:28:01;4.60;99.90
44271;DHT22;29963;44.594;11.368;2023-01-28T04:30:29;4.60;99.90
44271;DHT22;29963;44.594;11.368;2023-01-28T04:32:55;4.60;99.90
44271;DHT22;29963;44.594;11.368;2023-01-28T04:35:21;4.50;99.90
44271;DHT22;29963;44.594;11.368;2023-01-28T04:37:47;4.40;99.90
44271;DHT22;29963;44.594;11.368;2023-01-28T04:40:15;4.30;99.90
44271;DHT22;29963;44.594;11.368;2023-01-28T04:42:41;4.30;99.90
44271;DHT22;29963;44.594;11.368;2023-01-28T04:45:07;4.20;99.90
44271;DHT22;29963;44.594;11.368;2023-01-28T04:47:33;4.20;99.90
44271;DHT22;29963;44.594;11.368;2023-01-28T04:49:59;4.20;99.90
44271;DHT22;29963;44.594;11.368;2023-01-28T04:52:24;4.20;99.90
44271;DHT22;29963;44.594;11.368;2023-01-28T04:54:50;4.20;99.90
44271;DHT22;29963;44.594;11.368;2023-01-28T04:57:16;4.20;99.90
44271;DHT22;29963;44.594;11.368;2023-01-28T04:59:41;4.20;99.90
44271;DHT22;29963;44.594;11.368;2023-01-28T05:02:07;4.20;99.90
44271;DHT22;29963;44.594;11.368;2023-01-28T05:04:35;4.20;99.90
44271;DHT22;29963;44.594;11.368;2023-01-28T05:07:00;4.20;99.90
44271;DHT22;29963;44.594;11.368;2023-01-28T05:09:29;4.10;99.90
44271;DHT22;29963;44.594;11.368;2023-01-28T05:11:54;4.10;99.90
44271;DHT22;29963;44.594;11.368;2023-01-28T05:14:20;4.10;99.90
44271;DHT22;29963;44.594;11.368;2023-01-28T05:16:46;4.10;99.90
44271;DHT22;29963;44.594;11.368;2023-01-28T05:19:11;4.20;99.90
44271;DHT22;29963;44.594;11.368;2023-01-28T05:21:37;4.20;99.90
44271;DHT22;29963;44.594;11.368;2023-01-28T05:24:03;4.10;99.90
44271;DHT22;29963;44.594;11.368;2023-01-28T05:26:28;4.00;99.90
44271;DHT22;29963;44.594;11.368;2023-01-28T05:28:54;3.90;99.90
44271;DHT22;29963;44.594;11.368;2023-01-28T05:31:20;3.90;99.90
44271;DHT22;29963;44.594;11.368;2023-01-28T05:33:45;3.80;99.90
44271;DHT22;29963;44.594;11.368;2023-01-28T05:36:11;3.80;99.90
44271;DHT22;29963;44.594;11.368;2023-01-28T05:38:37;3.80;99.90
44271;DHT22;29963;44.594;11.368;2023-01-28T05:41:03;3.70;99.90
44271;DHT22;29963;44.594;11.368;2023-01-28T05:43:28;3.70;99.90
44271;DHT22;29963;44.594;11.368;2023-01-28T05:45:54;3.70;99.90
44271;DHT22;29963;44.594;11.368;2023-01-28T05:48:20;3.70;99.90
44271;DHT22;29963;44.594;11.368;2023-01-28T05:50:46;3.60;99.90
44271;DHT22;29963;44.594;11.368;2023-01-28T05:53:12;3.60;99.90
44271;DHT22;29963;44.594;11.368;2023-01-28T05:55:38;3.60;99.90
44271;DHT22;29963;44.594;11.368;2023-01-28T05:58:03;3.60;99.90
44271;DHT22;29963;44.594;11.368;2023-01-28T06:00:29;3.60;99.90
44271;DHT22;29963;44.594;11.368;2023-01-28T06:02:55;3.60;99.90
44271;DHT22;29963;44.594;11.368;2023-01-28T06:05:23;3.50;99.90
44271;DHT22;29963;44.594;11.368;2023-01-28T06:07:48;3.60;99.90
44271;DHT22;29963;44.594;11.368;2023-01-28T06:10:14;3.50;99.90
44271;DHT22;29963;44.594;11.368;2023-01-28T06:12:42;3.50;99.90
44271;DHT22;29963;44.594;11.368;2023-01-28T06:15:09;3.50;99.90
44271;DHT22;29963;44.594;11.368;2023-01-28T06:17:34;3.50;99.90
44271;DHT22;29963;44.594;11.368;2023-01-28T06:20:00;3.60;99.90
44271;DHT22;29963;44.594;11.368;2023-01-28T06:22:26;3.60;99.90
44271;DHT22;29963;44.594;11.368;2023-01-28T06:24:51;3.70;99.90
44271;DHT22;29963;44.594;11.368;2023-01-28T06:27:17;3.70;99.90
44271;DHT22;29963;44.594;11.368;2023-01-28T06:29:43;3.80;99.90
44271;DHT22;29963;44.594;11.368;2023-01-28T06:32:08;3.80;99.90
44271;DHT22;29963;44.594;11.368;2023-01-28T06:34:34;3.70;99.90
44271;DHT22;29963;44.594;11.368;2023-01-28T06:37:00;3.70;99.90
44271;DHT22;29963;44.594;11.368;2023-01-28T06:39:25;3.70;99.90
44271;DHT22;29963;44.594;11.368;2023-01-28T06:41:52;3.70;99.90
44271;DHT22;29963;44.594;11.368;2023-01-28T06:44:18;3.60;99.90
44271;DHT22;29963;44.594;11.368;2023-01-28T06:46:44;3.60;99.90
44271;DHT22;29963;44.594;11.368;2023-01-28T06:49:10;3.60;99.90
44271;DHT22;29963;44.594;11.368;2023-01-28T06:51:35;3.70;99.90
44271;DHT22;29963;44.594;11.368;2023-01-28T06:54:01;3.80;99.90
44271;DHT22;29963;44.594;11.368;2023-01-28T06:56:27;3.80;99.90
44271;DHT22;29963;44.594;11.368;2023-01-28T06:58:52;3.80;99.90
44271;DHT22;29963;44.594;11.368;2023-01-28T07:01:18;3.80;99.90
44271;DHT22;29963;44.594;11.368;2023-01-28T07:03:43;3.70;99.90
44271;DHT22;29963;44.594;11.368;2023-01-28T07:06:09;3.80;99.90
44271;DHT22;29963;44.594;11.368;2023-01-28T07:08:35;3.70;99.90
44271;DHT22;29963;44.594;11.368;2023-01-28T07:11:02;3.80;99.90
44271;DHT22;29963;44.594;11.368;2023-01-28T07:13:31;3.80;99.90
44271;DHT22;29963;44.594;11.368;2023-01-28T07:15:57;3.80;99.90
44271;DHT22;29963;44.594;11.368;2023-01-28T07:18:23;3.80;99.90
44271;DHT22;29963;44.594;11.368;2023-01-28T07:20:48;3.70;99.90
44271;DHT22;29963;44.594;11.368;2023-01-28T07:23:14;3.70;99.90
44271;DHT22;29963;44.594;11.368;2023-01-28T07:25:40;3.60;99.90
44271;DHT22;29963;44.594;11.368;2023-01-28T07:28:05;3.70;99.90
44271;DHT22;29963;44.594;11.368;2023-01-28T07:30:31;3.60;99.90
44271;DHT22;29963;44.594;11.368;2023-01-28T07:32:59;3.60;99.90
44271;DHT22;29963;44.594;11.368;2023-01-28T07:35:25;3.60;99.90
44271;DHT22;29963;44.594;11.368;2023-01-28T07:37:58;3.60;99.90
44271;DHT22;29963;44.594;11.368;2023-01-28T07:40:25;3.70;99.90
44271;DHT22;29963;44.594;11.368;2023-01-28T07:42:51;3.70;99.90
44271;DHT22;29963;44.594;11.368;2023-01-28T07:45:19;3.80;99.90
44271;DHT22;29963;44.594;11.368;2023-01-28T07:47:53;3.90;99.90
44271;DHT22;29963;44.594;11.368;2023-01-28T07:50:19;3.90;99.90
44271;DHT22;29963;44.594;11.368;2023-01-28T07:52:44;3.90;99.90
44271;DHT22;29963;44.594;11.368;2023-01-28T07:55:12;3.90;99.90
44271;DHT22;29963;44.594;11.368;2023-01-28T07:57:57;3.90;99.90
44271;DHT22;29963;44.594;11.368;2023-01-28T08:00:25;3.90;99.90
44271;DHT22;29963;44.594;11.368;2023-01-28T08:02:55;3.90;99.90
44271;DHT22;29963;44.594;11.368;2023-01-28T08:05:22;3.80;99.90
44271;DHT22;29963;44.594;11.368;2023-01-28T08:07:48;3.70;99.90
44271;DHT22;29963;44.594;11.368;2023-01-28T08:10:15;3.70;99.90
44271;DHT22;29963;44.594;11.368;2023-01-28T08:12:50;3.70;99.90
44271;DHT22;29963;44.594;11.368;2023-01-28T08:15:19;3.70;99.90
44271;DHT22;29963;44.594;11.368;2023-01-28T08:17:44;3.70;99.90
44271;DHT22;29963;44.594;11.368;2023-01-28T08:20:11;3.70;99.90
44271;DHT22;29963;44.594;11.368;2023-01-28T08:22:36;3.60;99.90
44271;DHT22;29963;44.594;11.368;2023-01-28T08:25:02;3.60;99.90
44271;DHT22;29963;44.594;11.368;2023-01-28T08:27:28;3.60;99.90
44271;DHT22;29963;44.594;11.368;2023-01-28T08:29:54;3.60;99.90
44271;DHT22;29963;44.594;11.368;2023-01-28T08:32:19;3.50;99.90
44271;DHT22;29963;44.594;11.368;2023-01-28T08:34:45;3.50;99.90
44271;DHT22;29963;44.594;11.368;2023-01-28T08:37:10;3.60;99.90
44271;DHT22;29963;44.594;11.368;2023-01-28T08:39:39;3.70;99.90
44271;DHT22;29963;44.594;11.368;2023-01-28T08:42:05;3.80;99.90
44271;DHT22;29963;44.594;11.368;2023-01-28T08:44:31;3.70;99.90
44271;DHT22;29963;44.594;11.368;2023-01-28T08:46:57;3.70;99.90
44271;DHT22;29963;44.594;11.368;2023-01-28T08:49:23;3.80;99.90
44271;DHT22;29963;44.594;11.368;2023-01-28T08:51:49;3.80;99.90
44271;DHT22;29963;44.594;11.368;2023-01-28T08:54:14;3.90;99.90
44271;DHT22;29963;44.594;11.368;2023-01-28T08:56:40;4.00;99.90
44271;DHT22;29963;44.594;11.368;2023-01-28T08:59:12;4.10;99.90
44271;DHT22;29963;44.594;11.368;2023-01-28T09:01:37;4.00;99.90
44271;DHT22;29963;44.594;11.368;2023-01-28T09:04:04;4.20;99.90
44271;DHT22;29963;44.594;11.368;2023-01-28T09:06:29;4.20;99.90
44271;DHT22;29963;44.594;11.368;2023-01-28T09:09:01;4.30;99.90
44271;DHT22;29963;44.594;11.368;2023-01-28T09:11:28;4.30;99.90
44271;DHT22;29963;44.594;11.368;2023-01-28T09:13:55;4.40;99.90
44271;DHT22;29963;44.594;11.368;2023-01-28T09:16:21;4.40;99.90
44271;DHT22;29963;44.594;11.368;2023-01-28T09:18:46;4.40;99.90
44271;DHT22;29963;44.594;11.368;2023-01-28T09:21:13;4.50;99.90
44271;DHT22;29963;44.594;11.368;2023-01-28T09:23:38;4.60;99.90
44271;DHT22;29963;44.594;11.368;2023-01-28T09:26:05;4.60;99.90
44271;DHT22;29963;44.594;11.368;2023-01-28T09:28:31;4.70;99.90
44271;DHT22;29963;44.594;11.368;2023-01-28T09:31:08;4.80;99.90
44271;DHT22;29963;44.594;11.368;2023-01-28T09:33:35;4.90;99.90
44271;DHT22;29963;44.594;11.368;2023-01-28T09:36:02;5.00;99.90
44271;DHT22;29963;44.594;11.368;2023-01-28T09:38:29;5.10;99.90
44271;DHT22;29963;44.594;11.368;2023-01-28T09:40:55;5.10;99.90
44271;DHT22;29963;44.594;11.368;2023-01-28T09:46:18;5.30;99.90
44271;DHT22;29963;44.594;11.368;2023-01-28T09:48:47;5.30;99.90
44271;DHT22;29963;44.594;11.368;2023-01-28T09:54:13;5.40;99.90
44271;DHT22;29963;44.594;11.368;2023-01-28T09:56:42;5.40;99.90
44271;DHT22;29963;44.594;11.368;2023-01-28T09:59:17;5.30;99.90
44271;DHT22;29963;44.594;11.368;2023-01-28T10:04:21;5.20;99.90
44271;DHT22;29963;44.594;11.368;2023-01-28T10:17:21;5.60;99.90
44271;DHT22;29963;44.594;11.368;2023-01-28T10:20:36;5.70;99.90
44271;DHT22;29963;44.594;11.368;2023-01-28T10:25:20;5.80;99.90
44271;DHT22;29963;44.594;11.368;2023-01-28T10:27:47;5.80;99.90
44271;DHT22;29963;44.594;11.368;2023-01-28T10:30:22;5.90;99.90
44271;DHT22;29963;44.594;11.368;2023-01-28T10:33:00;5.90;99.90
44271;DHT22;29963;44.594;11.368;2023-01-28T10:35:30;6.10;99.90
44271;DHT22;29963;44.594;11.368;2023-01-28T10:38:03;6.10;99.90
44271;DHT22;29963;44.594;11.368;2023-01-28T10:40:33;6.10;99.90
44271;DHT22;29963;44.594;11.368;2023-01-28T10:42:58;6.20;99.90
44271;DHT22;29963;44.594;11.368;2023-01-28T10:45:31;5.90;99.90
44271;DHT22;29963;44.594;11.368;2023-01-28T10:48:20;5.90;99.90
44271;DHT22;29963;44.594;11.368;2023-01-28T10:51:01;5.90;99.90
44271;DHT22;29963;44.594;11.368;2023-01-28T10:53:42;6.00;99.90
44271;DHT22;29963;44.594;11.368;2023-01-28T10:56:13;6.00;99.90
44271;DHT22;29963;44.594;11.368;2023-01-28T10:59:00;6.00;99.90
44271;DHT22;29963;44.594;11.368;2023-01-28T11:04:25;6.00;99.90
44271;DHT22;29963;44.594;11.368;2023-01-28T11:09:27;6.10;99.90
44271;DHT22;29963;44.594;11.368;2023-01-28T11:11:53;6.10;99.90
44271;DHT22;29963;44.594;11.368;2023-01-28T11:14:21;6.10;99.90
44271;DHT22;29963;44.594;11.368;2023-01-28T11:16:48;6.10;99.90
44271;DHT22;29963;44.594;11.368;2023-01-28T11:19:14;6.20;99.90
44271;DHT22;29963;44.594;11.368;2023-01-28T11:21:51;6.30;99.90
44271;DHT22;29963;44.594;11.368;2023-01-28T11:24:22;6.30;99.90
44271;DHT22;29963;44.594;11.368;2023-01-28T11:26:51;6.30;99.90
44271;DHT22;29963;44.594;11.368;2023-01-28T11:29:31;6.40;99.90
44271;DHT22;29963;44.594;11.368;2023-01-28T11:32:00;6.30;99.90
44271;DHT22;29963;44.594;11.368;2023-01-28T11:34:32;6.40;99.90
44271;DHT22;29963;44.594;11.368;2023-01-28T11:37:03;6.40;99.90
44271;DHT22;29963;44.594;11.368;2023-01-28T11:39:35;6.50;99.90
44271;DHT22;29963;44.594;11.368;2023-01-28T11:42:16;6.60;99.90
44271;DHT22;29963;44.594;11.368;2023-01-28T11:44:42;6.60;99.90
44271;DHT22;29963;44.594;11.368;2023-01-28T11:53:15;6.70;99.90
44271;DHT22;29963;44.594;11.368;2023-01-28T12:12:26;6.60;99.90
44271;DHT22;29963;44.594;11.368;2023-01-28T12:25:34;6.80;99.90
44271;DHT22;29963;44.594;11.368;2023-01-28T12:31:41;6.70;99.90
44271;DHT22;29963;44.594;11.368;2023-01-28T12:36:38;6.90;99.90
44271;DHT22;29963;44.594;11.368;2023-01-28T12:42:41;7.00;99.90
44271;DHT22;29963;44.594;11.368;2023-01-28T12:47:43;7.10;99.90
44271;DHT22;29963;44.594;11.368;2023-01-28T12:50:30;7.30;99.90
44271;DHT22;29963;44.594;11.368;2023-01-28T12:56:14;7.40;99.90
44271;DHT22;29963;44.594;11.368;2023-01-28T13:01:34;7.50;99.90
44271;DHT22;29963;44.594;11.368;2023-01-28T13:04:17;7.50;99.90
44271;DHT22;29963;44.594;11.368;2023-01-28T13:09:57;7.60;99.90
44271;DHT22;29963;44.594;11.368;2023-01-28T13:12:25;7.70;99.90
44271;DHT22;29963;44.594;11.368;2023-01-28T13:14:51;7.60;99.90
44271;DHT22;29963;44.594;11.368;2023-01-28T13:17:31;7.60;99.90
44271;DHT22;29963;44.594;11.368;2023-01-28T13:19:58;7.70;99.90
44271;DHT22;29963;44.594;11.368;2023-01-28T13:22:35;7.70;99.90
44271;DHT22;29963;44.594;11.368;2023-01-28T13:25:21;7.70;99.90
44271;DHT22;29963;44.594;11.368;2023-01-28T13:28:05;7.70;99.90
44271;DHT22;29963;44.594;11.368;2023-01-28T13:30:45;7.70;99.90
44271;DHT22;29963;44.594;11.368;2023-01-28T13:33:29;7.90;99.90
44271;DHT22;29963;44.594;11.368;2023-01-28T13:35:55;8.00;99.90
44271;DHT22;29963;44.594;11.368;2023-01-28T13:38:21;8.10;99.90
44271;DHT22;29963;44.594;11.368;2023-01-28T13:40:56;8.20;99.90
44271;DHT22;29963;44.594;11.368;2023-01-28T13:46:02;8.30;99.90
44271;DHT22;29963;44.594;11.368;2023-01-28T13:48:41;8.20;99.90
44271;DHT22;29963;44.594;11.368;2023-01-28T13:51:33;8.20;99.90
44271;DHT22;29963;44.594;11.368;2023-01-28T13:54:06;8.30;99.90
44271;DHT22;29963;44.594;11.368;2023-01-28T13:56:54;8.40;99.90
44271;DHT22;29963;44.594;11.368;2023-01-28T14:02:35;8.40;99.90
44271;DHT22;29963;44.594;11.368;2023-01-28T14:07:59;8.40;99.90
44271;DHT22;29963;44.594;11.368;2023-01-28T14:10:37;8.40;99.90
44271;DHT22;29963;44.594;11.368;2023-01-28T14:13:25;8.40;99.90
44271;DHT22;29963;44.594;11.368;2023-01-28T14:18:39;8.60;99.90
44271;DHT22;29963;44.594;11.368;2023-01-28T14:21:16;9.30;99.90
44271;DHT22;29963;44.594;11.368;2023-01-28T14:23:50;10.10;99.90
44271;DHT22;29963;44.594;11.368;2023-01-28T14:31:34;10.80;99.90
44271;DHT22;29963;44.594;11.368;2023-01-28T14:34:23;11.10;99.90
44271;DHT22;29963;44.594;11.368;2023-01-28T14:36:51;11.40;99.90
44271;DHT22;29963;44.594;11.368;2023-01-28T14:39:24;11.80;99.90
44271;DHT22;29963;44.594;11.368;2023-01-28T14:41:52;11.90;99.90
44271;DHT22;29963;44.594;11.368;2023-01-28T14:44:31;11.80;99.90
44271;DHT22;29963;44.594;11.368;2023-01-28T14:53:49;11.90;99.90
44271;DHT22;29963;44.594;11.368;2023-01-28T14:58:40;11.90;99.90
44271;DHT22;29963;44.594;11.368;2023-01-28T15:01:23;11.90;99.90
44271;DHT22;29963;44.594;11.368;2023-01-28T15:03:50;11.60;99.90
44271;DHT22;29963;44.594;11.368;2023-01-28T15:06:18;11.70;99.90
44271;DHT22;29963;44.594;11.368;2023-01-28T15:09:05;11.70;99.90
44271;DHT22;29963;44.594;11.368;2023-01-28T15:11:35;12.10;99.90
44271;DHT22;29963;44.594;11.368;2023-01-28T15:14:13;12.40;99.90
44271;DHT22;29963;44.594;11.368;2023-01-28T15:16:40;12.70;99.90
44271;DHT22;29963;44.594;11.368;2023-01-28T15:19:11;12.80;99.90
44271;DHT22;29963;44.594;11.368;2023-01-28T15:21:37;12.90;99.90
44271;DHT22;29963;44.594;11.368;2023-01-28T15:24:03;12.90;99.90
44271;DHT22;29963;44.594;11.368;2023-01-28T15:26:33;12.60;99.90
44271;DHT22;29963;44.594;11.368;2023-01-28T15:28:59;12.60;99.90
44271;DHT22;29963;44.594;11.368;2023-01-28T15:31:32;12.70;99.90
44271;DHT22;29963;44.594;11.368;2023-01-28T15:34:09;12.60;99.90
44271;DHT22;29963;44.594;11.368;2023-01-28T15:36:36;12.60;99.90
44271;DHT22;29963;44.594;11.368;2023-01-28T15:39:02;12.30;99.90
44271;DHT22;29963;44.594;11.368;2023-01-28T15:41:37;11.80;99.90
44271;DHT22;29963;44.594;11.368;2023-01-28T15:44:06;11.50;99.90
44271;DHT22;29963;44.594;11.368;2023-01-28T15:46:32;11.20;99.90
44271;DHT22;29963;44.594;11.368;2023-01-28T15:49:02;10.70;99.90
44271;DHT22;29963;44.594;11.368;2023-01-28T15:51:32;10.30;99.90
44271;DHT22;29963;44.594;11.368;2023-01-28T15:54:06;9.80;99.90
44271;DHT22;29963;44.594;11.368;2023-01-28T15:56:33;9.50;99.90
44271;DHT22;29963;44.594;11.368;2023-01-28T16:01:41;8.90;99.90
44271;DHT22;29963;44.594;11.368;2023-01-28T16:04:25;8.70;99.90
44271;DHT22;29963;44.594;11.368;2023-01-28T16:06:51;8.40;99.90
44271;DHT22;29963;44.594;11.368;2023-01-28T16:09:32;8.30;99.90
44271;DHT22;29963;44.594;11.368;2023-01-28T16:12:11;8.20;99.90
44271;DHT22;29963;44.594;11.368;2023-01-28T16:14:49;8.00;99.90
44271;DHT22;29963;44.594;11.368;2023-01-28T16:17:17;7.80;99.90
44271;DHT22;29963;44.594;11.368;2023-01-28T16:19:47;7.80;99.90
44271;DHT22;29963;44.594;11.368;2023-01-28T16:24:59;7.70;99.90
44271;DHT22;29963;44.594;11.368;2023-01-28T16:27:27;7.60;99.90
44271;DHT22;29963;44.594;11.368;2023-01-28T16:29:53;7.50;99.90
44271;DHT22;29963;44.594;11.368;2023-01-28T16:32:36;7.50;99.90
44271;DHT22;29963;44.594;11.368;2023-01-28T16:35:03;7.40;99.90
44271;DHT22;29963;44.594;11.368;2023-01-28T16:37:32;7.30;99.90
44271;DHT22;29963;44.594;11.368;2023-01-28T16:39:57;7.20;99.90
44271;DHT22;29963;44.594;11.368;2023-01-28T16:42:24;7.20;99.90
44271;DHT22;29963;44.594;11.368;2023-01-28T16:44:49;7.10;99.90
44271;DHT22;29963;44.594;11.368;2023-01-28T16:47:18;7.10;99.90
44271;DHT22;29963;44.594;11.368;2023-01-28T16:49:46;7.10;99.90
44271;DHT22;29963;44.594;11.368;2023-01-28T16:52:12;7.00;99.90
44271;DHT22;29963;44.594;11.368;2023-01-28T16:54:41;6.90;99.90
44271;DHT22;29963;44.594;11.368;2023-01-28T16:57:09;6.90;99.90
44271;DHT22;29963;44.594;11.368;2023-01-28T16:59:35;6.90;99.90
44271;DHT22;29963;44.594;11.368;2023-01-28T17:02:03;6.90;99.90
44271;DHT22;29963;44.594;11.368;2023-01-28T17:04:29;7.00;99.90
44271;DHT22;29963;44.594;11.368;2023-01-28T17:06:55;7.00;99.90
44271;DHT22;29963;44.594;11.368;2023-01-28T17:09:21;7.00;99.90
44271;DHT22;29963;44.594;11.368;2023-01-28T17:11:47;7.00;99.90
44271;DHT22;29963;44.594;11.368;2023-01-28T17:14:13;6.90;99.90
44271;DHT22;29963;44.594;11.368;2023-01-28T17:16:38;6.80;99.90
44271;DHT22;29963;44.594;11.368;2023-01-28T17:19:04;6.80;99.90
44271;DHT22;29963;44.594;11.368;2023-01-28T17:21:30;6.70;99.90
44271;DHT22;29963;44.594;11.368;2023-01-28T17:23:55;6.70;99.90
44271;DHT22;29963;44.594;11.368;2023-01-28T17:26:21;6.70;99.90
44271;DHT22;29963;44.594;11.368;2023-01-28T17:28:53;6.70;99.90
44271;DHT22;29963;44.594;11.368;2023-01-28T17:31:20;6.70;99.90
44271;DHT22;29963;44.594;11.368;2023-01-28T17:33:46;6.60;99.90
44271;DHT22;29963;44.594;11.368;2023-01-28T17:36:14;6.70;99.90
44271;DHT22;29963;44.594;11.368;2023-01-28T17:38:43;6.80;99.90
44271;DHT22;29963;44.594;11.368;2023-01-28T17:41:10;6.80;99.90
44271;DHT22;29963;44.594;11.368;2023-01-28T17:43:37;6.80;99.90
44271;DHT22;29963;44.594;11.368;2023-01-28T17:46:12;6.80;99.90
44271;DHT22;29963;44.594;11.368;2023-01-28T17:48:39;6.80;99.90
44271;DHT22;29963;44.594;11.368;2023-01-28T17:51:05;6.80;99.90
44271;DHT22;29963;44.594;11.368;2023-01-28T17:53:31;6.80;99.90
44271;DHT22;29963;44.594;11.368;2023-01-28T17:55:57;6.80;99.90